Flight Track Log - Related Links

Times and Time Zones

All times are in EDT time to prevent confusion due to time zone crossing. See the N904PA flight status page for this flight to view local times or setup timezone preferences in your user account.

Time Position Orientation Groundspeed Altitude Reporting Facility
EDT Latitude Longitude Course Direction KTS MPH feet Rate Location/Type
Thu 02:38:34 PM 34.3767 -118.5564 332° Northwest 131 151 7,200  Level Los Angeles Center
Thu 02:39:36 PM 34.4189 -118.5758 339° North 159 183 8,500 1,452 Climbing Los Angeles Center
Thu 02:40:38 PM 34.4719 -118.6033 337° Northwest 172 198 10,200 1,403 Climbing Los Angeles Center
Thu 02:41:40 PM 34.5139 -118.6236 338° Northwest 163 188 11,400 1,065 Climbing Los Angeles Center
Thu 02:42:42 PM 34.5603 -118.6467 338° Northwest 178 205 12,400 528 Climbing Los Angeles Center
Thu 02:43:00 PM -19.9008 -160.1650 123° Southeast  Level Estimated
Thu 02:43:45 PM 34.6114 -118.6711 339° North 206 237 12,500  Level Los Angeles Center
Thu 02:44:47 PM 34.6706 -118.7019 337° Northwest 229 264 12,700 97 Climbing Los Angeles Center
Thu 02:45:49 PM 34.7414 -118.7350 339° North 228 262 12,700  Level Los Angeles Center
Thu 02:46:51 PM 34.7994 -118.7639 338° Northwest 226 260 12,700  Level Los Angeles Center
Thu 02:47:53 PM 34.8564 -118.7908 339° North 221 254 12,700 -97 Level Los Angeles Center
Thu 02:48:55 PM 34.9161 -118.8225 337° Northwest 220 253 12,500 -97 Descending Los Angeles Center
Thu 02:49:57 PM 34.9725 -118.8500 338° Northwest 219 252 12,500  Level Los Angeles Center
Thu 02:50:59 PM 35.0297 -118.8783 338° Northwest 222 255 12,500  Level Los Angeles Center
Thu 02:52:01 PM 35.0750 -118.9014 337° Northwest 220 253 12,500  Level Los Angeles Center
Thu 02:53:04 PM 35.1542 -118.9408 338° Northwest 220 253 12,500  Level Los Angeles Center
Thu 02:54:06 PM 35.2131 -118.9686 339° North 226 260 12,500  Level Los Angeles Center
Thu 02:55:08 PM 35.2697 -118.9978 337° Northwest 224 258 12,500 -629 Level Los Angeles Center
Thu 02:56:10 PM 35.3311 -119.0275 338° Northwest 232 267 11,200 -1,403 Descending Los Angeles Center
Thu 02:57:12 PM 35.3919 -119.0583 338° Northwest 236 272 9,600 -1,694 Descending Los Angeles Center
Thu 02:58:14 PM 35.4667 -119.0961 338° Northwest 239 275 7,700 -1,742 Descending Los Angeles Center
Thu 02:59:16 PM 35.5272 -119.1269 337° Northwest 239 275 6,000 -1,452 Descending Los Angeles Center
Thu 03:00:18 PM 35.5742 -119.1503 338° Northwest 237 273 4,700 -1,248 Descending Los Angeles Center
Thu 03:01:21 PM 35.6492 -119.1858 339° North 231 266 3,400 -1,238 Descending Los Angeles Center

Login

Don't have an account? Register now (free) for customized features, flight alerts, and more!